createdAt,value
2018-11-10T00:01:41.360Z,14.90
2018-11-10T00:05:08.112Z,14.93
2018-11-10T00:08:33.603Z,14.90
2018-11-10T00:12:00.103Z,14.81
2018-11-10T00:15:25.771Z,14.84
2018-11-10T00:18:50.673Z,14.95
2018-11-10T00:22:15.388Z,14.90
2018-11-10T00:25:40.059Z,14.62
2018-11-10T00:29:04.862Z,14.79
2018-11-10T00:32:29.533Z,14.87
2018-11-10T00:35:54.705Z,14.54
2018-11-10T00:39:19.438Z,14.62
2018-11-10T00:42:44.658Z,14.71
2018-11-10T00:46:09.411Z,14.68
2018-11-10T00:49:34.345Z,14.85
2018-11-10T00:52:59.127Z,14.77
2018-11-10T00:56:23.895Z,14.77
2018-11-10T00:59:48.580Z,14.92
2018-11-10T01:03:13.322Z,14.95
2018-11-10T01:06:38.025Z,14.88
2018-11-10T01:10:02.672Z,14.82
2018-11-10T01:13:27.317Z,15.10
2018-11-10T01:16:52.032Z,15.08
2018-11-10T01:20:16.727Z,14.84
2018-11-10T01:23:41.461Z,14.75
2018-11-10T01:27:06.506Z,14.91
2018-11-10T01:30:31.194Z,14.77
2018-11-10T01:33:55.853Z,14.91
2018-11-10T01:37:20.534Z,14.76
2018-11-10T01:40:45.227Z,14.74
2018-11-10T01:44:10.133Z,14.75
2018-11-10T01:47:34.808Z,14.67
2018-11-10T01:50:59.464Z,14.85
2018-11-10T01:54:24.102Z,14.74
2018-11-10T01:57:48.816Z,14.92
2018-11-10T02:01:13.460Z,14.86
2018-11-10T02:04:38.137Z,14.91
2018-11-10T02:08:02.872Z,14.99
2018-11-10T02:11:27.582Z,15.24
2018-11-10T02:14:52.291Z,15.13
2018-11-10T02:18:16.953Z,15.10
2018-11-10T02:21:41.764Z,15.19
2018-11-10T02:25:07.870Z,15.46
2018-11-10T02:28:32.636Z,15.33
2018-11-10T02:31:57.327Z,15.47
2018-11-10T02:35:22.123Z,15.44
2018-11-10T02:38:46.903Z,15.48
2018-11-10T02:42:11.527Z,15.62
2018-11-10T02:45:36.227Z,15.47
2018-11-10T02:49:01.133Z,15.35
2018-11-10T02:52:25.802Z,15.56
2018-11-10T02:55:50.601Z,15.44
2018-11-10T02:59:15.256Z,15.36
2018-11-10T03:02:39.921Z,15.55
2018-11-10T03:06:04.721Z,15.40
2018-11-10T03:09:29.345Z,15.40
2018-11-10T03:12:54.077Z,15.66
2018-11-10T03:16:18.813Z,15.61
2018-11-10T03:19:43.558Z,15.32
2018-11-10T03:23:08.198Z,15.52
2018-11-10T03:26:32.968Z,15.40
2018-11-10T03:29:57.607Z,15.60
2018-11-10T03:33:22.318Z,15.64
2018-11-10T03:36:46.987Z,15.75
2018-11-10T03:40:12.747Z,16.01
2018-11-10T03:43:37.431Z,15.63
2018-11-10T03:47:02.066Z,15.82
2018-11-10T03:50:26.741Z,15.85
2018-11-10T03:53:51.407Z,15.91
2018-11-10T03:57:16.088Z,15.94
2018-11-10T04:00:40.748Z,15.75
2018-11-10T04:04:05.458Z,16.04
2018-11-10T04:07:30.140Z,16.02
2018-11-10T04:10:54.887Z,16.02
2018-11-10T04:14:19.614Z,15.96
2018-11-10T04:17:44.279Z,15.88
2018-11-10T04:21:08.991Z,15.96
2018-11-10T04:24:33.668Z,15.94
2018-11-10T04:27:58.285Z,16.08
2018-11-10T04:31:22.964Z,16.01
2018-11-10T04:34:47.656Z,16.17
2018-11-10T04:38:12.344Z,16.32
2018-11-10T04:41:37.203Z,16.25
2018-11-10T04:45:01.927Z,16.35
2018-11-10T04:48:26.639Z,16.45
2018-11-10T04:51:51.298Z,16.18
2018-11-10T04:55:15.973Z,16.41
2018-11-10T04:58:40.656Z,16.49
2018-11-10T05:02:05.377Z,16.32
2018-11-10T05:05:30.046Z,16.21
2018-11-10T05:08:54.760Z,16.15
2018-11-10T05:12:19.448Z,16.40
2018-11-10T05:15:44.142Z,16.40
2018-11-10T05:19:08.822Z,16.31
2018-11-10T05:22:33.551Z,16.16
2018-11-10T05:25:58.303Z,16.13
2018-11-10T05:29:23.000Z,16.19
2018-11-10T05:32:47.673Z,16.06
2018-11-10T05:36:12.353Z,15.75
2018-11-10T05:39:37.070Z,15.64
2018-11-10T05:43:01.723Z,15.26
2018-11-10T05:46:26.440Z,15.14
2018-11-10T05:49:51.138Z,14.91
2018-11-10T05:53:15.820Z,14.79
2018-11-10T05:56:40.514Z,15.00
2018-11-10T06:00:07.787Z,14.77
2018-11-10T06:03:32.511Z,14.62
2018-11-10T06:06:57.161Z,14.62
2018-11-10T06:10:22.099Z,14.52
2018-11-10T06:13:46.567Z,14.42
2018-11-10T06:17:11.244Z,14.30
2018-11-10T06:20:35.962Z,14.39
2018-11-10T06:24:00.622Z,14.41
2018-11-10T06:27:25.347Z,14.41
2018-11-10T06:30:50.014Z,14.48
2018-11-10T06:34:21.293Z,14.33
2018-11-10T06:37:46.056Z,14.54
2018-11-10T06:41:10.985Z,14.35
2018-11-10T06:44:35.719Z,14.27
2018-11-10T06:48:00.393Z,14.24
2018-11-10T06:51:25.151Z,14.11
2018-11-10T06:54:49.916Z,14.16
2018-11-10T06:58:14.596Z,14.26
2018-11-10T07:01:39.529Z,14.54
2018-11-10T07:05:04.551Z,14.64
2018-11-10T07:08:29.358Z,14.62
2018-11-10T07:11:54.074Z,14.60
2018-11-10T07:15:18.781Z,14.60
2018-11-10T07:18:43.518Z,14.67
2018-11-10T07:22:08.191Z,14.54
2018-11-10T07:25:32.897Z,14.89
2018-11-10T07:28:57.574Z,14.99
2018-11-10T07:32:25.524Z,14.77
2018-11-10T07:35:50.282Z,14.89
2018-11-10T07:39:14.983Z,15.08
2018-11-10T07:42:39.687Z,14.96
2018-11-10T07:46:04.463Z,14.94
2018-11-10T07:49:29.296Z,15.24
2018-11-10T07:52:53.886Z,14.95
2018-11-10T07:56:18.655Z,14.90
2018-11-10T07:59:43.354Z,15.08
2018-11-10T08:03:08.075Z,14.93
2018-11-10T08:06:32.787Z,14.93
2018-11-10T08:09:57.536Z,14.99
2018-11-10T08:13:22.279Z,15.28
2018-11-10T08:16:46.970Z,15.14
2018-11-10T08:20:12.301Z,15.18
2018-11-10T08:23:37.071Z,15.19
2018-11-10T08:27:01.830Z,15.17
2018-11-10T08:30:26.628Z,15.19
2018-11-10T08:33:51.380Z,14.91
2018-11-10T08:37:16.172Z,15.26
2018-11-10T08:40:40.877Z,15.40
2018-11-10T08:44:06.025Z,15.30
2018-11-10T08:47:30.739Z,15.35
2018-11-10T08:50:55.523Z,15.35
2018-11-10T08:54:20.278Z,15.41
2018-11-10T08:57:45.250Z,15.42
2018-11-10T09:01:10.048Z,15.46
2018-11-10T09:04:34.938Z,15.36
2018-11-10T09:07:59.645Z,15.51
2018-11-10T09:11:24.336Z,15.65
2018-11-10T09:14:49.144Z,15.45
2018-11-10T09:18:13.944Z,15.47
2018-11-10T09:21:38.726Z,15.56
2018-11-10T09:25:03.396Z,15.75
2018-11-10T09:28:28.228Z,15.55
2018-11-10T09:31:52.896Z,15.63
2018-11-10T09:35:18.220Z,15.65
2018-11-10T09:38:43.059Z,16.05
2018-11-10T09:42:07.887Z,15.79
2018-11-10T09:45:32.565Z,16.25
2018-11-10T09:48:57.246Z,15.87
2018-11-10T09:52:21.878Z,16.24
2018-11-10T09:55:46.654Z,15.99
2018-11-10T09:59:11.310Z,16.21
2018-11-10T10:02:36.269Z,16.12
2018-11-10T10:06:00.793Z,16.19
2018-11-10T10:09:25.540Z,16.40
2018-11-10T10:12:50.252Z,16.19
2018-11-10T10:16:15.085Z,16.26
2018-11-10T10:19:39.596Z,16.41
2018-11-10T10:23:04.270Z,16.46
2018-11-10T10:26:28.975Z,16.45
2018-11-10T10:29:53.684Z,16.57
2018-11-10T10:33:18.486Z,16.37
2018-11-10T10:36:43.163Z,16.38
2018-11-10T10:40:10.581Z,16.49
2018-11-10T10:43:36.566Z,16.40
2018-11-10T10:47:01.274Z,16.27
2018-11-10T10:50:25.987Z,16.36
2018-11-10T10:53:50.649Z,16.28
2018-11-10T10:57:15.395Z,16.18
2018-11-10T11:00:45.265Z,15.90
2018-11-10T11:04:15.178Z,15.98
2018-11-10T11:07:39.869Z,15.87
2018-11-10T11:11:04.574Z,15.88
2018-11-10T11:14:29.241Z,16.02
2018-11-10T11:17:53.935Z,16.20
2018-11-10T11:21:18.629Z,15.86
2018-11-10T11:24:43.313Z,15.62
2018-11-10T11:28:08.126Z,15.74
2018-11-10T11:31:32.802Z,15.66
2018-11-10T11:34:57.489Z,15.53
2018-11-10T11:38:22.490Z,15.45
2018-11-10T11:41:47.194Z,15.31
2018-11-10T11:45:12.817Z,15.31
2018-11-10T11:48:37.505Z,15.33
2018-11-10T11:52:02.225Z,15.32
2018-11-10T11:55:26.927Z,15.32
2018-11-10T11:58:51.686Z,15.48
2018-11-10T12:02:16.381Z,15.41
2018-11-10T12:05:41.059Z,15.36
2018-11-10T12:09:08.882Z,15.22
2018-11-10T12:12:33.584Z,15.50
2018-11-10T12:15:58.274Z,15.55
2018-11-10T12:19:23.029Z,15.18
2018-11-10T12:22:50.722Z,15.44
2018-11-10T12:26:15.434Z,15.45
2018-11-10T12:29:40.110Z,15.36
2018-11-10T12:33:04.835Z,15.42
2018-11-10T12:36:29.510Z,15.33
2018-11-10T12:39:54.181Z,15.56
2018-11-10T12:43:18.907Z,15.38
2018-11-10T12:46:43.592Z,15.64
2018-11-10T12:50:10.382Z,15.39
2018-11-10T12:53:35.096Z,15.53
2018-11-10T12:57:00.749Z,15.70
2018-11-10T13:00:25.504Z,15.81
2018-11-10T13:03:50.446Z,15.71
2018-11-10T13:07:15.206Z,15.77
2018-11-10T13:10:39.966Z,15.84
2018-11-10T13:14:04.696Z,15.64
2018-11-10T13:17:29.574Z,15.76
2018-11-10T13:20:54.172Z,15.88
2018-11-10T13:24:19.062Z,15.77
2018-11-10T13:27:43.639Z,15.84
2018-11-10T13:31:08.549Z,15.54
2018-11-10T13:34:33.251Z,15.43
2018-11-10T13:37:57.965Z,15.50
2018-11-10T13:41:22.733Z,15.47
2018-11-10T13:44:47.481Z,15.51
2018-11-10T13:48:12.204Z,15.21
2018-11-10T13:51:37.098Z,15.47
2018-11-10T13:55:01.702Z,15.33
2018-11-10T13:58:26.420Z,15.05
2018-11-10T14:01:51.244Z,15.23
2018-11-10T14:05:16.137Z,15.40
2018-11-10T14:08:40.879Z,15.18
2018-11-10T14:12:05.793Z,15.34
2018-11-10T14:15:30.674Z,15.43
2018-11-10T14:18:55.319Z,15.29
2018-11-10T14:22:19.990Z,15.14
2018-11-10T14:25:44.671Z,15.32
2018-11-10T14:29:09.403Z,15.23
2018-11-10T14:32:34.124Z,15.38
2018-11-10T14:35:58.871Z,15.24
2018-11-10T14:39:23.598Z,15.48
2018-11-10T14:42:48.290Z,15.13
2018-11-10T14:46:12.982Z,15.41
2018-11-10T14:49:37.682Z,15.19
2018-11-10T14:53:02.470Z,15.42
2018-11-10T14:56:27.043Z,15.41
2018-11-10T14:59:51.706Z,15.36
2018-11-10T15:03:16.389Z,15.19
2018-11-10T15:06:41.046Z,15.42
2018-11-10T15:10:08.090Z,15.42
2018-11-10T15:13:32.762Z,15.49
2018-11-10T15:16:57.439Z,15.58
2018-11-10T15:20:22.118Z,15.53
2018-11-10T15:23:46.907Z,15.51
2018-11-10T15:27:11.605Z,15.56
2018-11-10T15:30:36.291Z,15.45
2018-11-10T15:34:01.000Z,15.46
2018-11-10T15:37:25.766Z,15.54
2018-11-10T15:40:50.416Z,15.46
2018-11-10T15:44:15.102Z,15.60
2018-11-10T15:47:40.132Z,15.74
2018-11-10T15:51:04.824Z,15.91
2018-11-10T15:54:29.509Z,15.84
2018-11-10T15:57:54.174Z,15.85
2018-11-10T16:01:18.846Z,16.06
2018-11-10T16:04:43.501Z,15.84
2018-11-10T16:08:08.148Z,15.87
2018-11-10T16:11:32.770Z,15.61
2018-11-10T16:14:57.630Z,15.74
2018-11-10T16:18:22.324Z,15.51
2018-11-10T16:21:47.030Z,15.39
2018-11-10T16:25:11.720Z,15.62
2018-11-10T16:28:36.385Z,15.64
2018-11-10T16:32:01.005Z,15.68
2018-11-10T16:35:25.632Z,15.75
2018-11-10T16:38:50.489Z,15.60
2018-11-10T16:42:15.147Z,15.66
2018-11-10T16:45:39.814Z,15.72
2018-11-10T16:49:04.670Z,15.73
2018-11-10T16:52:36.054Z,15.74
2018-11-10T16:56:00.719Z,15.64
2018-11-10T16:59:25.434Z,15.78
2018-11-10T17:02:50.190Z,15.78
2018-11-10T17:06:14.942Z,15.62
2018-11-10T17:09:39.655Z,15.68
2018-11-10T17:13:04.356Z,15.75
2018-11-10T17:16:29.101Z,15.62
2018-11-10T17:19:53.769Z,15.78
2018-11-10T17:23:18.450Z,15.53
2018-11-10T17:26:43.106Z,15.53
2018-11-10T17:30:12.283Z,15.62
2018-11-10T17:33:36.929Z,15.81
2018-11-10T17:37:01.595Z,15.70
2018-11-10T17:40:26.353Z,15.74
2018-11-10T17:43:50.983Z,15.76
2018-11-10T17:47:15.631Z,15.65
2018-11-10T17:50:40.414Z,16.02
2018-11-10T17:54:05.279Z,16.13
2018-11-10T17:57:29.921Z,16.12
2018-11-10T18:00:54.692Z,15.87
2018-11-10T18:04:19.357Z,15.99
2018-11-10T18:07:44.116Z,16.18
2018-11-10T18:11:08.781Z,16.27
2018-11-10T18:14:33.514Z,16.22
2018-11-10T18:17:58.158Z,16.16
2018-11-10T18:21:22.815Z,16.14
2018-11-10T18:24:47.583Z,16.14
2018-11-10T18:28:12.243Z,16.10
2018-11-10T18:31:36.877Z,16.14
2018-11-10T18:35:01.562Z,16.20
2018-11-10T18:38:26.324Z,16.12
2018-11-10T18:41:50.987Z,16.09
2018-11-10T18:45:15.690Z,16.21
2018-11-10T18:48:40.530Z,16.31
2018-11-10T18:52:05.279Z,16.06
2018-11-10T18:55:29.910Z,15.98
2018-11-10T18:58:54.588Z,15.73
2018-11-10T19:02:19.276Z,15.91
2018-11-10T19:05:43.956Z,15.72
2018-11-10T19:09:12.008Z,15.60
2018-11-10T19:12:36.704Z,15.57
2018-11-10T19:16:01.411Z,15.39
2018-11-10T19:19:26.119Z,15.72
2018-11-10T19:22:50.839Z,15.49
2018-11-10T19:26:15.527Z,15.53
2018-11-10T19:29:40.290Z,15.48
2018-11-10T19:33:04.940Z,15.58
2018-11-10T19:36:29.645Z,15.56
2018-11-10T19:39:54.352Z,15.31
2018-11-10T19:43:19.033Z,15.31
2018-11-10T19:46:43.725Z,15.36
2018-11-10T19:50:08.935Z,15.50
2018-11-10T19:53:33.592Z,15.15
2018-11-10T19:56:58.263Z,15.10
2018-11-10T20:00:24.128Z,15.34
2018-11-10T20:03:48.767Z,15.42
2018-11-10T20:07:13.459Z,15.38
2018-11-10T20:10:38.169Z,15.33
2018-11-10T20:14:02.857Z,15.20
2018-11-10T20:17:27.503Z,15.31
2018-11-10T20:20:52.246Z,15.29
2018-11-10T20:24:16.960Z,15.35
2018-11-10T20:27:41.931Z,15.25
2018-11-10T20:31:06.636Z,15.14
2018-11-10T20:34:31.279Z,14.96
2018-11-10T20:37:56.832Z,14.80
2018-11-10T20:41:21.528Z,15.02
2018-11-10T20:44:46.216Z,14.87
2018-11-10T20:48:10.850Z,14.76
2018-11-10T20:51:35.584Z,14.90
2018-11-10T20:55:00.252Z,14.81
2018-11-10T20:58:24.944Z,14.71
2018-11-10T21:01:49.621Z,14.79
2018-11-10T21:05:14.896Z,14.70
2018-11-10T21:08:39.610Z,15.01
2018-11-10T21:12:04.252Z,14.76
2018-11-10T21:15:28.935Z,14.71
2018-11-10T21:18:53.627Z,14.96
2018-11-10T21:22:18.334Z,14.87
2018-11-10T21:25:43.081Z,15.02
2018-11-10T21:29:08.017Z,15.00
2018-11-10T21:32:32.665Z,15.00
2018-11-10T21:36:00.298Z,15.00
2018-11-10T21:39:24.952Z,14.90
2018-11-10T21:42:49.701Z,14.81
2018-11-10T21:46:14.371Z,14.79
2018-11-10T21:49:39.239Z,14.75
2018-11-10T21:53:03.792Z,14.85
2018-11-10T21:56:28.545Z,14.87
2018-11-10T21:59:53.191Z,14.69
2018-11-10T22:03:17.859Z,14.92
2018-11-10T22:06:42.549Z,14.81
2018-11-10T22:10:10.210Z,14.83
2018-11-10T22:13:35.045Z,14.75
2018-11-10T22:16:59.739Z,14.71
2018-11-10T22:20:25.206Z,14.80
2018-11-10T22:23:49.898Z,14.80
2018-11-10T22:27:14.621Z,14.89
2018-11-10T22:30:46.018Z,14.88
2018-11-10T22:34:10.780Z,14.86
2018-11-10T22:37:35.585Z,15.10
2018-11-10T22:41:00.283Z,15.00
2018-11-10T22:44:25.102Z,14.72
2018-11-10T22:47:50.026Z,14.90
2018-11-10T22:51:14.724Z,14.96
2018-11-10T22:54:39.523Z,15.06
2018-11-10T22:58:04.243Z,15.11
2018-11-10T23:01:32.353Z,15.21
2018-11-10T23:04:57.124Z,15.16
2018-11-10T23:08:21.941Z,15.29
2018-11-10T23:11:48.673Z,15.12
2018-11-10T23:15:13.808Z,15.46
2018-11-10T23:18:38.528Z,15.49
2018-11-10T23:22:03.393Z,15.50
2018-11-10T23:25:28.114Z,15.30
2018-11-10T23:28:54.219Z,15.45
2018-11-10T23:32:18.995Z,15.43
2018-11-10T23:35:50.281Z,15.30
2018-11-10T23:39:15.010Z,15.27
2018-11-10T23:42:40.096Z,15.24
2018-11-10T23:46:04.839Z,15.23
2018-11-10T23:49:29.575Z,15.16
2018-11-10T23:52:54.350Z,15.28
2018-11-10T23:56:19.100Z,15.32
2018-11-10T23:59:43.886Z,15.13
